sensor_id;sensor_type;location;lat;lon;timestamp;pressure;altitude;pressure_sealevel;temperature;humidity
25947;BME280;13745;51.470;9.894;2023-01-30T00:01:46;99438.53;;;1.82;78.03
25947;BME280;13745;51.470;9.894;2023-01-30T00:04:31;99425.13;;;1.92;77.69
25947;BME280;13745;51.470;9.894;2023-01-30T00:07:16;99416.44;;;1.84;77.24
25947;BME280;13745;51.470;9.894;2023-01-30T00:10:02;99403.84;;;1.93;77.60
25947;BME280;13745;51.470;9.894;2023-01-30T00:12:47;99381.78;;;1.98;77.72
25947;BME280;13745;51.470;9.894;2023-01-30T00:15:32;99385.00;;;1.90;77.53
25947;BME280;13745;51.470;9.894;2023-01-30T00:18:18;99388.31;;;1.84;77.91
25947;BME280;13745;51.470;9.894;2023-01-30T00:21:04;99387.44;;;1.82;77.73
25947;BME280;13745;51.470;9.894;2023-01-30T00:23:50;99363.53;;;1.82;77.66
25947;BME280;13745;51.470;9.894;2023-01-30T00:26:34;99367.75;;;1.78;77.72
25947;BME280;13745;51.470;9.894;2023-01-30T00:29:19;99390.72;;;1.77;77.77
25947;BME280;13745;51.470;9.894;2023-01-30T00:32:04;99404.34;;;1.77;77.65
25947;BME280;13745;51.470;9.894;2023-01-30T00:34:51;99380.47;;;1.75;77.84
25947;BME280;13745;51.470;9.894;2023-01-30T00:37:36;99369.41;;;1.76;77.96
25947;BME280;13745;51.470;9.894;2023-01-30T00:40:21;99366.75;;;1.73;78.31
25947;BME280;13745;51.470;9.894;2023-01-30T00:43:06;99349.91;;;1.81;78.13
25947;BME280;13745;51.470;9.894;2023-01-30T00:46:10;99372.81;;;1.77;78.60
25947;BME280;13745;51.470;9.894;2023-01-30T00:49:15;99363.47;;;1.77;77.97
25947;BME280;13745;51.470;9.894;2023-01-30T00:52:01;99329.38;;;1.77;77.98
25947;BME280;13745;51.470;9.894;2023-01-30T00:54:46;99325.94;;;1.75;78.22
25947;BME280;13745;51.470;9.894;2023-01-30T00:57:33;99310.72;;;1.81;77.96
25947;BME280;13745;51.470;9.894;2023-01-30T01:00:18;99328.50;;;1.75;78.24
25947;BME280;13745;51.470;9.894;2023-01-30T01:03:03;99307.94;;;1.68;78.29
25947;BME280;13745;51.470;9.894;2023-01-30T01:05:48;99328.56;;;1.78;78.09
25947;BME280;13745;51.470;9.894;2023-01-30T01:08:34;99322.44;;;1.71;78.50
25947;BME280;13745;51.470;9.894;2023-01-30T01:11:19;99328.41;;;1.72;78.14
25947;BME280;13745;51.470;9.894;2023-01-30T01:14:08;99328.59;;;1.81;78.07
25947;BME280;13745;51.470;9.894;2023-01-30T01:16:53;99324.19;;;1.74;78.58
25947;BME280;13745;51.470;9.894;2023-01-30T01:19:39;99323.41;;;1.75;78.49
25947;BME280;13745;51.470;9.894;2023-01-30T01:22:24;99314.22;;;1.84;78.28
25947;BME280;13745;51.470;9.894;2023-01-30T01:25:10;99318.63;;;1.91;78.36
25947;BME280;13745;51.470;9.894;2023-01-30T01:27:57;99320.09;;;1.82;78.23
25947;BME280;13745;51.470;9.894;2023-01-30T01:30:41;99315.25;;;1.94;78.06
25947;BME280;13745;51.470;9.894;2023-01-30T01:33:28;99294.94;;;2.00;78.04
25947;BME280;13745;51.470;9.894;2023-01-30T01:36:13;99293.31;;;2.05;78.31
25947;BME280;13745;51.470;9.894;2023-01-30T01:38:59;99272.13;;;2.09;78.17
25947;BME280;13745;51.470;9.894;2023-01-30T01:41:47;99277.06;;;2.00;78.17
25947;BME280;13745;51.470;9.894;2023-01-30T01:47:31;99267.53;;;1.91;78.21
25947;BME280;13745;51.470;9.894;2023-01-30T01:50:18;99270.03;;;1.90;78.33
25947;BME280;13745;51.470;9.894;2023-01-30T01:53:04;99275.94;;;1.87;78.30
25947;BME280;13745;51.470;9.894;2023-01-30T01:55:52;99245.38;;;1.92;78.46
25947;BME280;13745;51.470;9.894;2023-01-30T01:58:42;99243.00;;;2.01;78.47
25947;BME280;13745;51.470;9.894;2023-01-30T02:01:30;99225.25;;;2.10;78.20
25947;BME280;13745;51.470;9.894;2023-01-30T02:04:15;99217.72;;;2.18;78.60
25947;BME280;13745;51.470;9.894;2023-01-30T02:07:21;99197.88;;;2.03;78.35
25947;BME280;13745;51.470;9.894;2023-01-30T02:10:08;99201.44;;;2.13;78.55
25947;BME280;13745;51.470;9.894;2023-01-30T02:12:56;99202.38;;;2.16;78.55
25947;BME280;13745;51.470;9.894;2023-01-30T02:15:42;99186.00;;;2.07;78.61
25947;BME280;13745;51.470;9.894;2023-01-30T02:18:27;99193.66;;;2.07;78.60
25947;BME280;13745;51.470;9.894;2023-01-30T02:21:33;99187.88;;;2.15;78.27
25947;BME280;13745;51.470;9.894;2023-01-30T02:24:30;99177.56;;;2.12;78.79
25947;BME280;13745;51.470;9.894;2023-01-30T02:27:21;99156.25;;;2.10;78.66
25947;BME280;13745;51.470;9.894;2023-01-30T02:30:22;99157.06;;;2.08;
25947;BME280;13745;51.470;9.894;2023-01-30T02:33:14;99163.81;;;2.06;78.47
25947;BME280;13745;51.470;9.894;2023-01-30T02:36:07;99167.34;;;2.12;78.93
25947;BME280;13745;51.470;9.894;2023-01-30T02:39:03;99152.13;;;2.20;79.11
25947;BME280;13745;51.470;9.894;2023-01-30T02:41:58;99147.13;;;2.26;79.21
25947;BME280;13745;51.470;9.894;2023-01-30T02:44:49;99152.19;;;2.23;79.23
25947;BME280;13745;51.470;9.894;2023-01-30T02:47:37;99139.38;;;2.21;78.97
25947;BME280;13745;51.470;9.894;2023-01-30T02:50:27;99138.69;;;2.32;79.20
25947;BME280;13745;51.470;9.894;2023-01-30T02:53:14;99136.03;;;2.24;79.31
25947;BME280;13745;51.470;9.894;2023-01-30T02:55:59;99125.84;;;2.29;79.59
25947;BME280;13745;51.470;9.894;2023-01-30T02:58:47;99120.84;;;2.35;79.80
25947;BME280;13745;51.470;9.894;2023-01-30T03:01:46;99102.09;;;2.34;79.89
25947;BME280;13745;51.470;9.894;2023-01-30T03:05:08;99124.25;;;2.35;80.29
25947;BME280;13745;51.470;9.894;2023-01-30T03:08:06;99113.22;;;2.38;80.21
25947;BME280;13745;51.470;9.894;2023-01-30T03:10:59;99094.53;;;2.43;80.21
25947;BME280;13745;51.470;9.894;2023-01-30T03:13:52;99087.72;;;2.44;80.43
25947;BME280;13745;51.470;9.894;2023-01-30T03:16:40;99074.19;;;2.49;80.69
25947;BME280;13745;51.470;9.894;2023-01-30T03:19:27;99061.41;;;2.52;80.66
25947;BME280;13745;51.470;9.894;2023-01-30T03:22:13;99067.41;;;2.54;80.81
25947;BME280;13745;51.470;9.894;2023-01-30T03:24:59;99071.69;;;2.56;80.97
25947;BME280;13745;51.470;9.894;2023-01-30T03:27:45;99074.31;;;2.59;81.00
25947;BME280;13745;51.470;9.894;2023-01-30T03:30:30;99051.28;;;2.60;81.11
25947;BME280;13745;51.470;9.894;2023-01-30T03:33:23;99031.50;;;2.47;81.06
25947;BME280;13745;51.470;9.894;2023-01-30T03:36:09;99044.38;;;2.54;81.15
25947;BME280;13745;51.470;9.894;2023-01-30T03:38:54;99037.63;;;2.58;81.60
25947;BME280;13745;51.470;9.894;2023-01-30T03:41:42;99044.44;;;2.58;81.52
25947;BME280;13745;51.470;9.894;2023-01-30T03:44:27;99040.22;;;2.61;81.73
25947;BME280;13745;51.470;9.894;2023-01-30T03:47:13;99039.44;;;2.65;81.83
25947;BME280;13745;51.470;9.894;2023-01-30T03:49:57;99052.88;;;2.50;81.51
25947;BME280;13745;51.470;9.894;2023-01-30T03:52:43;99043.63;;;2.60;81.58
25947;BME280;13745;51.470;9.894;2023-01-30T03:55:31;99041.09;;;2.65;81.45
25947;BME280;13745;51.470;9.894;2023-01-30T03:58:18;99014.72;;;2.67;82.01
25947;BME280;13745;51.470;9.894;2023-01-30T04:01:04;99024.13;;;2.71;82.05
25947;BME280;13745;51.470;9.894;2023-01-30T04:03:50;99007.13;;;2.75;82.22
25947;BME280;13745;51.470;9.894;2023-01-30T04:06:35;99020.81;;;2.77;81.99
25947;BME280;13745;51.470;9.894;2023-01-30T04:09:20;98991.81;;;2.81;82.17
25947;BME280;13745;51.470;9.894;2023-01-30T04:12:08;98988.47;;;2.82;82.05
25947;BME280;13745;51.470;9.894;2023-01-30T04:15:01;98977.38;;;2.81;82.60
25947;BME280;13745;51.470;9.894;2023-01-30T04:18:00;98973.97;;;2.84;82.30
25947;BME280;13745;51.470;9.894;2023-01-30T04:21:18;98958.63;;;2.84;82.22
25947;BME280;13745;51.470;9.894;2023-01-30T04:24:04;98950.13;;;2.88;82.37
25947;BME280;13745;51.470;9.894;2023-01-30T04:26:49;98926.28;;;2.91;82.51
25947;BME280;13745;51.470;9.894;2023-01-30T04:29:34;98941.66;;;2.95;82.57
25947;BME280;13745;51.470;9.894;2023-01-30T04:32:24;98947.66;;;2.97;82.68
25947;BME280;13745;51.470;9.894;2023-01-30T04:35:10;98969.88;;;3.01;82.56
25947;BME280;13745;51.470;9.894;2023-01-30T04:37:57;98963.91;;;3.02;82.85
25947;BME280;13745;51.470;9.894;2023-01-30T04:40:46;98950.25;;;2.99;82.49
25947;BME280;13745;51.470;9.894;2023-01-30T04:43:32;98946.00;;;3.04;83.08
25947;BME280;13745;51.470;9.894;2023-01-30T04:46:34;98938.31;;;2.99;82.77
25947;BME280;13745;51.470;9.894;2023-01-30T04:49:20;98947.72;;;3.05;83.09
25947;BME280;13745;51.470;9.894;2023-01-30T04:52:07;98950.31;;;3.08;82.93
25947;BME280;13745;51.470;9.894;2023-01-30T04:54:53;98958.03;;;3.11;82.93
25947;BME280;13745;51.470;9.894;2023-01-30T04:57:39;98949.50;;;3.14;83.18
25947;BME280;13745;51.470;9.894;2023-01-30T05:00:25;98961.50;;;3.15;83.07
25947;BME280;13745;51.470;9.894;2023-01-30T05:03:14;98965.75;;;3.16;83.41
25947;BME280;13745;51.470;9.894;2023-01-30T05:06:01;98953.81;;;3.18;83.29
25947;BME280;13745;51.470;9.894;2023-01-30T05:08:47;98958.97;;;3.19;83.30
25947;BME280;13745;51.470;9.894;2023-01-30T05:11:32;98946.16;;;3.19;83.56
25947;BME280;13745;51.470;9.894;2023-01-30T05:14:17;98939.31;;;3.20;83.71
25947;BME280;13745;51.470;9.894;2023-01-30T05:17:02;98927.38;;;3.20;83.67
25947;BME280;13745;51.470;9.894;2023-01-30T05:19:47;98923.97;;;3.20;83.54
25947;BME280;13745;51.470;9.894;2023-01-30T05:22:34;98924.88;;;3.23;83.74
25947;BME280;13745;51.470;9.894;2023-01-30T05:25:19;98924.03;;;3.24;83.73
25947;BME280;13745;51.470;9.894;2023-01-30T05:28:04;98918.88;;;3.23;83.80
25947;BME280;13745;51.470;9.894;2023-01-30T05:30:49;98921.41;;;3.21;83.90
25947;BME280;13745;51.470;9.894;2023-01-30T05:33:34;98920.56;;;3.21;84.04
25947;BME280;13745;51.470;9.894;2023-01-30T05:36:21;98920.53;;;3.18;84.21
25947;BME280;13745;51.470;9.894;2023-01-30T05:39:07;98914.56;;;3.16;84.58
25947;BME280;13745;51.470;9.894;2023-01-30T05:41:53;98904.28;;;3.14;84.25
25947;BME280;13745;51.470;9.894;2023-01-30T05:44:38;98904.28;;;3.14;84.32
25947;BME280;13745;51.470;9.894;2023-01-30T05:47:22;98895.75;;;3.14;84.20
25947;BME280;13745;51.470;9.894;2023-01-30T05:50:09;98894.03;;;3.11;84.46
25947;BME280;13745;51.470;9.894;2023-01-30T05:52:54;98888.06;;;3.12;84.74
25947;BME280;13745;51.470;9.894;2023-01-30T05:55:41;98888.91;;;3.11;84.62
25947;BME280;13745;51.470;9.894;2023-01-30T05:58:28;98892.31;;;3.13;84.82
25947;BME280;13745;51.470;9.894;2023-01-30T06:01:13;98895.78;;;3.15;84.72
25947;BME280;13745;51.470;9.894;2023-01-30T06:03:58;98888.09;;;3.17;84.71
25947;BME280;13745;51.470;9.894;2023-01-30T06:06:43;98877.88;;;3.17;84.86
25947;BME280;13745;51.470;9.894;2023-01-30T06:09:28;98882.97;;;3.17;85.01
25947;BME280;13745;51.470;9.894;2023-01-30T06:12:14;98890.66;;;3.17;85.12
25947;BME280;13745;51.470;9.894;2023-01-30T06:14:59;98890.66;;;3.18;85.22
25947;BME280;13745;51.470;9.894;2023-01-30T06:17:44;98882.13;;;3.18;85.14
25947;BME280;13745;51.470;9.894;2023-01-30T06:20:29;98894.94;;;3.19;85.40
25947;BME280;13745;51.470;9.894;2023-01-30T06:23:15;98886.41;;;3.19;85.30
25947;BME280;13745;51.470;9.894;2023-01-30T06:26:01;98888.97;;;3.19;85.39
25947;BME280;13745;51.470;9.894;2023-01-30T06:28:47;98871.03;;;3.16;85.50
25947;BME280;13745;51.470;9.894;2023-01-30T06:31:32;98875.31;;;3.18;85.44
25947;BME280;13745;51.470;9.894;2023-01-30T06:34:17;98883.84;;;3.20;85.45
25947;BME280;13745;51.470;9.894;2023-01-30T06:37:02;98865.06;;;3.20;85.56
25947;BME280;13745;51.470;9.894;2023-01-30T06:39:48;98881.34;;;3.23;85.66
25947;BME280;13745;51.470;9.894;2023-01-30T06:42:33;98871.91;;;3.22;85.68
25947;BME280;13745;51.470;9.894;2023-01-30T06:45:19;98888.13;;;3.21;85.93
25947;BME280;13745;51.470;9.894;2023-01-30T06:48:05;98886.41;;;3.22;85.58
25947;BME280;13745;51.470;9.894;2023-01-30T06:50:50;98878.72;;;3.22;85.61
25947;BME280;13745;51.470;9.894;2023-01-30T06:53:35;98877.03;;;3.21;85.95
25947;BME280;13745;51.470;9.894;2023-01-30T06:56:20;98870.19;;;3.21;85.93
25947;BME280;13745;51.470;9.894;2023-01-30T06:59:06;98875.34;;;3.23;86.04
25947;BME280;13745;51.470;9.894;2023-01-30T07:01:52;98871.03;;;3.20;86.17
25947;BME280;13745;51.470;9.894;2023-01-30T07:04:38;98865.97;;;3.25;86.03
25947;BME280;13745;51.470;9.894;2023-01-30T07:07:24;98881.34;;;3.26;86.02
25947;BME280;13745;51.470;9.894;2023-01-30T07:10:10;98889.03;;;3.26;86.28
25947;BME280;13745;51.470;9.894;2023-01-30T07:12:56;98895.03;;;3.30;86.03
25947;BME280;13745;51.470;9.894;2023-01-30T07:15:40;98893.31;;;3.30;86.14
25947;BME280;13745;51.470;9.894;2023-01-30T07:18:27;98887.38;;;3.31;86.17
25947;BME280;13745;51.470;9.894;2023-01-30T07:21:12;98889.94;;;3.36;85.90
25947;BME280;13745;51.470;9.894;2023-01-30T07:23:57;98882.28;;;3.37;86.38
25947;BME280;13745;51.470;9.894;2023-01-30T07:26:42;98888.28;;;3.41;86.49
25947;BME280;13745;51.470;9.894;2023-01-30T07:29:27;98901.09;;;3.43;86.50
25947;BME280;13745;51.470;9.894;2023-01-30T07:32:13;98889.16;;;3.46;86.52
25947;BME280;13745;51.470;9.894;2023-01-30T07:35:00;98880.63;;;3.46;86.72
25947;BME280;13745;51.470;9.894;2023-01-30T07:37:46;98880.66;;;3.52;86.52
25947;BME280;13745;51.470;9.894;2023-01-30T07:40:31;98877.31;;;3.56;86.30
25947;BME280;13745;51.470;9.894;2023-01-30T07:43:16;98873.03;;;3.58;86.54
25947;BME280;13745;51.470;9.894;2023-01-30T07:46:02;98885.84;;;3.56;86.51
25947;BME280;13745;51.470;9.894;2023-01-30T07:48:47;98882.38;;;3.54;86.45
25947;BME280;13745;51.470;9.894;2023-01-30T07:51:34;98877.25;;;3.53;86.13
25947;BME280;13745;51.470;9.894;2023-01-30T07:54:19;98883.25;;;3.53;86.39
25947;BME280;13745;51.470;9.894;2023-01-30T07:57:04;98893.50;;;3.55;86.43
25947;BME280;13745;51.470;9.894;2023-01-30T07:59:49;98905.47;;;3.57;86.43
25947;BME280;13745;51.470;9.894;2023-01-30T08:02:34;98907.19;;;3.58;86.43
25947;BME280;13745;51.470;9.894;2023-01-30T08:05:19;98908.91;;;3.61;86.55
25947;BME280;13745;51.470;9.894;2023-01-30T08:08:06;98907.22;;;3.63;86.59
25947;BME280;13745;51.470;9.894;2023-01-30T08:10:51;98907.22;;;3.63;86.49
25947;BME280;13745;51.470;9.894;2023-01-30T08:13:36;98926.88;;;3.65;86.65
25947;BME280;13745;51.470;9.894;2023-01-30T08:16:21;98938.84;;;3.68;86.24
25947;BME280;13745;51.470;9.894;2023-01-30T08:19:06;98917.50;;;3.64;86.66
25947;BME280;13745;51.470;9.894;2023-01-30T08:21:51;98912.31;;;3.60;86.53
25947;BME280;13745;51.470;9.894;2023-01-30T08:24:37;98909.75;;;3.57;86.64
25947;BME280;13745;51.470;9.894;2023-01-30T08:27:22;98894.38;;;3.57;86.31
25947;BME280;13745;51.470;9.894;2023-01-30T08:30:09;98900.34;;;3.57;86.58
25947;BME280;13745;51.470;9.894;2023-01-30T08:32:54;98897.81;;;3.60;86.38
25947;BME280;13745;51.470;9.894;2023-01-30T08:35:39;98895.25;;;3.59;86.82
25947;BME280;13745;51.470;9.894;2023-01-30T08:38:24;98890.97;;;3.59;86.38
25947;BME280;13745;51.470;9.894;2023-01-30T08:41:10;98897.81;;;3.57;86.83
25947;BME280;13745;51.470;9.894;2023-01-30T08:43:56;98900.34;;;3.57;86.95
25947;BME280;13745;51.470;9.894;2023-01-30T08:46:41;98902.06;;;3.57;86.84
25947;BME280;13745;51.470;9.894;2023-01-30T08:49:26;98887.56;;;3.62;86.65
25947;BME280;13745;51.470;9.894;2023-01-30T08:52:11;98897.00;;;3.67;86.63
25947;BME280;13745;51.470;9.894;2023-01-30T08:54:56;98886.81;;;3.75;86.60
25947;BME280;13745;51.470;9.894;2023-01-30T08:57:42;98891.13;;;3.82;86.74
25947;BME280;13745;51.470;9.894;2023-01-30T09:00:27;98898.91;;;3.98;86.74
25947;BME280;13745;51.470;9.894;2023-01-30T09:03:13;98888.66;;;4.04;86.53
25947;BME280;13745;51.470;9.894;2023-01-30T09:05:59;98888.69;;;4.07;87.03
25947;BME280;13745;51.470;9.894;2023-01-30T09:08:43;98886.13;;;4.10;86.84
25947;BME280;13745;51.470;9.894;2023-01-30T09:11:29;98900.69;;;4.14;87.10
25947;BME280;13745;51.470;9.894;2023-01-30T09:14:15;98908.41;;;4.28;86.97
25947;BME280;13745;51.470;9.894;2023-01-30T09:17:02;98916.13;;;4.38;87.06
25947;BME280;13745;51.470;9.894;2023-01-30T09:19:47;98911.91;;;4.45;86.94
25947;BME280;13745;51.470;9.894;2023-01-30T09:22:32;98917.06;;;4.51;87.08
25947;BME280;13745;51.470;9.894;2023-01-30T09:25:17;98920.50;;;4.58;86.86
25947;BME280;13745;51.470;9.894;2023-01-30T09:28:02;98919.69;;;4.65;87.12
25947;BME280;13745;51.470;9.894;2023-01-30T09:30:49;98911.13;;;4.73;86.76
25947;BME280;13745;51.470;9.894;2023-01-30T09:33:34;98914.59;;;4.98;86.68
25947;BME280;13745;51.470;9.894;2023-01-30T09:36:19;98900.94;;;5.22;86.04
25947;BME280;13745;51.470;9.894;2023-01-30T09:39:04;98903.44;;;5.76;85.73
25947;BME280;13745;51.470;9.894;2023-01-30T09:42:00;98889.34;;;7.82;82.03
25947;BME280;13745;51.470;9.894;2023-01-30T09:45:11;98860.81;;;9.71;77.71
25947;BME280;13745;51.470;9.894;2023-01-30T09:48:06;98877.09;;;11.03;74.92
25947;BME280;13745;51.470;9.894;2023-01-30T09:51:10;98894.97;;;12.18;72.41
25947;BME280;13745;51.470;9.894;2023-01-30T09:54:03;98901.31;;;13.26;70.60
25947;BME280;13745;51.470;9.894;2023-01-30T09:56:58;98895.63;;;13.39;69.87
25947;BME280;13745;51.470;9.894;2023-01-30T09:59:52;98906.06;;;12.23;71.39
25947;BME280;13745;51.470;9.894;2023-01-30T10:02:44;98918.19;;;11.20;73.20
25947;BME280;13745;51.470;9.894;2023-01-30T10:05:39;98913.81;;;10.45;75.00
25947;BME280;13745;51.470;9.894;2023-01-30T10:08:38;98928.72;;;9.84;75.58
25947;BME280;13745;51.470;9.894;2023-01-30T10:11:36;98927.81;;;9.37;76.47
25947;BME280;13745;51.470;9.894;2023-01-30T10:14:37;98923.06;;;9.11;77.01
25947;BME280;13745;51.470;9.894;2023-01-30T10:17:33;98906.84;;;10.00;75.71
25947;BME280;13745;51.470;9.894;2023-01-30T10:20:36;98909.56;;;11.55;72.74
25947;BME280;13745;51.470;9.894;2023-01-30T10:23:37;98908.78;;;11.51;72.25
25947;BME280;13745;51.470;9.894;2023-01-30T10:26:25;98902.22;;;13.23;69.62
25947;BME280;13745;51.470;9.894;2023-01-30T10:29:15;98896.41;;;14.89;66.60
25947;BME280;13745;51.470;9.894;2023-01-30T10:32:06;98890.44;;;17.08;62.83
25947;BME280;13745;51.470;9.894;2023-01-30T10:35:03;98893.59;;;18.53;59.92
25947;BME280;13745;51.470;9.894;2023-01-30T10:37:56;98876.44;;;20.01;57.39
25947;BME280;13745;51.470;9.894;2023-01-30T10:40:48;98871.09;;;19.43;57.37
25947;BME280;13745;51.470;9.894;2023-01-30T10:43:39;98872.66;;;17.86;58.72
25947;BME280;13745;51.470;9.894;2023-01-30T10:46:46;98870.38;;;18.13;58.57
25947;BME280;13745;51.470;9.894;2023-01-30T10:49:38;98852.00;;;19.09;55.72
25947;BME280;13745;51.470;9.894;2023-01-30T10:52:37;98873.09;;;17.59;57.65
25947;BME280;13745;51.470;9.894;2023-01-30T10:55:30;98870.28;;;17.81;57.05
25947;BME280;13745;51.470;9.894;2023-01-30T10:58:18;98871.94;;;17.30;60.96
25947;BME280;13745;51.470;9.894;2023-01-30T11:01:11;98882.53;;;16.91;58.74
25947;BME280;13745;51.470;9.894;2023-01-30T11:04:01;98889.81;;;15.45;60.11
25947;BME280;13745;51.470;9.894;2023-01-30T11:06:47;98879.31;;;17.22;57.69
25947;BME280;13745;51.470;9.894;2023-01-30T11:09:38;98871.47;;;19.97;52.57
25947;BME280;13745;51.470;9.894;2023-01-30T11:12:24;98848.28;;;22.06;49.60
25947;BME280;13745;51.470;9.894;2023-01-30T11:15:09;98865.81;;;21.82;49.49
25947;BME280;13745;51.470;9.894;2023-01-30T11:18:02;98858.91;;;21.67;49.63
25947;BME280;13745;51.470;9.894;2023-01-30T11:20:53;98858.84;;;21.68;49.08
25947;BME280;13745;51.470;9.894;2023-01-30T11:23:41;98845.47;;;24.02;45.96
25947;BME280;13745;51.470;9.894;2023-01-30T11:26:29;98842.66;;;25.90;43.51
25947;BME280;13745;51.470;9.894;2023-01-30T11:29:26;98831.97;;;24.84;44.73
25947;BME280;13745;51.470;9.894;2023-01-30T11:32:14;98828.13;;;22.80;45.60
25947;BME280;13745;51.470;9.894;2023-01-30T11:35:19;98845.34;;;20.65;48.67
25947;BME280;13745;51.470;9.894;2023-01-30T11:38:12;98845.81;;;20.14;48.60
25947;BME280;13745;51.470;9.894;2023-01-30T11:41:05;98834.03;;;19.17;49.56
25947;BME280;13745;51.470;9.894;2023-01-30T11:43:58;98820.59;;;17.26;51.37
25947;BME280;13745;51.470;9.894;2023-01-30T11:46:45;98828.25;;;16.38;52.87
25947;BME280;13745;51.470;9.894;2023-01-30T11:49:35;98822.56;;;15.50;53.90
25947;BME280;13745;51.470;9.894;2023-01-30T11:52:23;98818.53;;;15.84;53.63
25947;BME280;13745;51.470;9.894;2023-01-30T11:55:13;98788.63;;;18.99;49.17
25947;BME280;13745;51.470;9.894;2023-01-30T11:57:58;98797.31;;;21.93;44.91
25947;BME280;13745;51.470;9.894;2023-01-30T12:00:46;98788.41;;;23.87;43.24
25947;BME280;13745;51.470;9.894;2023-01-30T12:03:38;98799.13;;;24.96;41.73
25947;BME280;13745;51.470;9.894;2023-01-30T12:06:29;98806.22;;;22.41;43.68
25947;BME280;13745;51.470;9.894;2023-01-30T12:09:30;98816.44;;;19.03;47.60
25947;BME280;13745;51.470;9.894;2023-01-30T12:12:28;98814.94;;;21.00;46.12
25947;BME280;13745;51.470;9.894;2023-01-30T12:15:21;98801.47;;;23.31;42.93
25947;BME280;13745;51.470;9.894;2023-01-30T12:18:12;98814.38;;;24.72;41.57
25947;BME280;13745;51.470;9.894;2023-01-30T12:21:05;98785.69;;;26.03;40.58
25947;BME280;13745;51.470;9.894;2023-01-30T12:23:58;98788.78;;;25.78;39.92
25947;BME280;13745;51.470;9.894;2023-01-30T12:26:46;98794.50;;;26.94;38.77
25947;BME280;13745;51.470;9.894;2023-01-30T12:29:33;98804.84;;;27.94;37.00
25947;BME280;13745;51.470;9.894;2023-01-30T12:32:22;98788.88;;;28.59;36.72
25947;BME280;13745;51.470;9.894;2023-01-30T12:35:14;98806.16;;;28.54;36.19
25947;BME280;13745;51.470;9.894;2023-01-30T12:38:07;98801.97;;;27.58;36.93
25947;BME280;13745;51.470;9.894;2023-01-30T12:41:07;98812.78;;;24.91;39.35
25947;BME280;13745;51.470;9.894;2023-01-30T12:44:06;98812.88;;;22.96;40.94
25947;BME280;13745;51.470;9.894;2023-01-30T12:47:08;98821.38;;;22.01;41.77
25947;BME280;13745;51.470;9.894;2023-01-30T12:50:38;98814.50;;;23.69;40.38
25947;BME280;13745;51.470;9.894;2023-01-30T12:53:35;98807.09;;;26.32;37.64
25947;BME280;13745;51.470;9.894;2023-01-30T12:56:38;98812.19;;;27.05;36.93
25947;BME280;13745;51.470;9.894;2023-01-30T12:59:33;98801.94;;;26.91;36.45
25947;BME280;13745;51.470;9.894;2023-01-30T13:02:33;98804.38;;;25.51;37.93
25947;BME280;13745;51.470;9.894;2023-01-30T13:05:30;98815.91;;;23.03;39.89
25947;BME280;13745;51.470;9.894;2023-01-30T13:08:32;98815.19;;;20.28;42.37
25947;BME280;13745;51.470;9.894;2023-01-30T13:11:25;98823.03;;;18.32;44.74
25947;BME280;13745;51.470;9.894;2023-01-30T13:14:20;98819.09;;;18.07;44.87
25947;BME280;13745;51.470;9.894;2023-01-30T13:17:19;98802.19;;;16.74;46.29
25947;BME280;13745;51.470;9.894;2023-01-30T13:20:14;98817.97;;;15.35;48.03
25947;BME280;13745;51.470;9.894;2023-01-30T13:23:00;98837.53;;;14.12;49.86
25947;BME280;13745;51.470;9.894;2023-01-30T13:25:56;98819.56;;;13.03;50.98
25947;BME280;13745;51.470;9.894;2023-01-30T13:28:45;98830.44;;;12.32;52.09
25947;BME280;13745;51.470;9.894;2023-01-30T13:31:35;98811.41;;;11.69;53.85
25947;BME280;13745;51.470;9.894;2023-01-30T13:34:27;98832.50;;;11.23;55.07
25947;BME280;13745;51.470;9.894;2023-01-30T13:37:16;98822.81;;;10.95;55.57
25947;BME280;13745;51.470;9.894;2023-01-30T13:40:05;98829.34;;;10.75;56.23
25947;BME280;13745;51.470;9.894;2023-01-30T13:43:01;98820.63;;;10.79;56.51
25947;BME280;13745;51.470;9.894;2023-01-30T13:45:53;98828.63;;;10.69;56.81
25947;BME280;13745;51.470;9.894;2023-01-30T13:48:48;98827.13;;;10.59;56.96
25947;BME280;13745;51.470;9.894;2023-01-30T13:51:42;98899.56;;;10.21;57.69
25947;BME280;13745;51.470;9.894;2023-01-30T13:54:41;98923.00;;;9.67;59.82
25947;BME280;13745;51.470;9.894;2023-01-30T13:57:41;98933.13;;;9.26;60.13
25947;BME280;13745;51.470;9.894;2023-01-30T14:00:30;98955.16;;;8.93;61.70
25947;BME280;13745;51.470;9.894;2023-01-30T14:03:25;98945.34;;;8.55;62.77
25947;BME280;13745;51.470;9.894;2023-01-30T14:06:20;98969.63;;;8.39;63.07
25947;BME280;13745;51.470;9.894;2023-01-30T14:09:19;98991.47;;;8.06;64.21
25947;BME280;13745;51.470;9.894;2023-01-30T14:12:05;98973.59;;;7.87;64.35
25947;BME280;13745;51.470;9.894;2023-01-30T14:15:00;98949.63;;;7.73;64.97
25947;BME280;13745;51.470;9.894;2023-01-30T14:17:58;98950.53;;;7.68;65.32
25947;BME280;13745;51.470;9.894;2023-01-30T14:20:45;98944.25;;;7.93;65.10
25947;BME280;13745;51.470;9.894;2023-01-30T14:23:33;98935.56;;;8.02;64.92
25947;BME280;13745;51.470;9.894;2023-01-30T14:27:01;98945.09;;;7.98;65.07
25947;BME280;13745;51.470;9.894;2023-01-30T14:29:52;98950.81;;;8.25;65.23
25947;BME280;13745;51.470;9.894;2023-01-30T14:32:52;98956.91;;;8.21;65.22
25947;BME280;13745;51.470;9.894;2023-01-30T14:35:40;98976.09;;;7.95;65.84
25947;BME280;13745;51.470;9.894;2023-01-30T14:38:25;98985.78;;;7.70;66.47
25947;BME280;13745;51.470;9.894;2023-01-30T14:41:24;98989.44;;;7.40;67.18
25947;BME280;13745;51.470;9.894;2023-01-30T14:44:10;98977.44;;;7.35;67.35
25947;BME280;13745;51.470;9.894;2023-01-30T14:46:55;98988.69;;;7.24;67.90
25947;BME280;13745;51.470;9.894;2023-01-30T14:49:42;98991.31;;;7.11;68.50
25947;BME280;13745;51.470;9.894;2023-01-30T14:52:35;98997.41;;;7.00;69.01
25947;BME280;13745;51.470;9.894;2023-01-30T14:55:25;99006.84;;;7.01;69.25
25947;BME280;13745;51.470;9.894;2023-01-30T14:58:17;99020.63;;;6.96;69.12
25947;BME280;13745;51.470;9.894;2023-01-30T15:01:02;99018.06;;;6.87;69.46
25947;BME280;13745;51.470;9.894;2023-01-30T15:03:48;99036.97;;;6.84;69.64
25947;BME280;13745;51.470;9.894;2023-01-30T15:06:34;99051.59;;;6.81;69.98
25947;BME280;13745;51.470;9.894;2023-01-30T15:09:24;99049.03;;;6.79;70.51